Time;durP1;ratioP1;P1;durP2;ratioP2;P2;SDS_P1;SDS_P2;PMS_P1;PMS_P2;Temp;Humidity;BMP_temperature;BMP_pressure;BME280_temperature;BME280_humidity;BME280_pressure;Samples;Min_cycle;Max_cycle;Signal;HPM_P1;HPM_P2
2023/10/10 16:59:14;;;;;;;;;4.00;4.00;;;;;27.18;34.55;101623.22;5886977;23;45112;31
2023/10/10 17:01:39;;;;;;;;;4.00;4.00;;;;;27.18;34.56;101625.88;4789162;29;48040;-78
2023/10/10 17:04:05;;;;;;;;;5.00;4.00;;;;;27.07;34.18;101617.38;4787476;29;45538;-78
2023/10/10 17:06:31;;;;;;;;;7.00;4.67;;;;;27.16;34.47;101638.63;4797264;29;45951;-79
2023/10/10 17:09:00;;;;;;;;;7.00;5.00;;;;;27.14;34.11;101646.81;4791623;29;45325;-78
2023/10/10 17:11:26;;;;;;;;;6.33;5.00;;;;;27.13;33.46;101652.34;4801262;29;46721;-79
2023/10/10 17:13:55;;;;;;;;;9.00;7.00;;;;;26.58;33.76;101569.19;4784255;29;45630;-79
2023/10/10 17:16:27;;;;;;;;;6.00;5.00;;;;;26.96;33.99;101637.44;4784139;29;45447;-78
2023/10/10 17:18:53;;;;;;;;;5.67;4.33;;;;;26.92;33.98;101630.00;4799576;29;45799;-78
2023/10/10 17:21:19;;;;;;;;;12.33;5.33;;;;;26.92;33.89;101630.00;4802182;29;46094;-79
2023/10/10 17:23:48;;;;;;;;;8.00;6.33;;;;;27.03;34.70;101652.69;4799161;29;45529;-78
2023/10/10 17:26:15;;;;;;;;;8.00;6.00;;;;;26.83;34.98;101627.47;4784161;29;45512;-79
2023/10/10 17:28:41;;;;;;;;;7.33;6.00;;;;;26.99;34.66;101654.06;4783871;29;45446;-79
2023/10/10 17:31:07;;;;;;;;;7.00;7.00;;;;;26.93;35.31;101653.81;4788903;29;46884;-78
2023/10/10 17:33:34;;;;;;;;;5.33;5.33;;;;;26.82;35.14;101633.84;4801890;29;45338;-78
2023/10/10 17:36:00;;;;;;;;;6.00;5.67;;;;;26.85;35.68;101644.13;4800859;29;46477;-78
2023/10/10 17:38:27;;;;;;;;;6.67;6.00;;;;;26.85;35.90;101657.47;4801167;29;45653;-78
2023/10/10 17:41:00;;;;;;;;;6.33;5.67;;;;;26.82;35.78;101652.53;4783748;29;46329;-79
2023/10/10 17:43:25;;;;;;;;;6.33;5.33;;;;;26.84;36.08;101669.19;4791719;29;45406;-79
2023/10/10 17:45:50;;;;;;;;;7.33;3.67;;;;;26.82;36.39;101675.72;4801998;29;45540;-79
2023/10/10 17:48:17;;;;;;;;;6.00;6.00;;;;;26.77;35.97;101670.97;4795521;29;45334;-78
2023/10/10 17:50:46;;;;;;;;;6.00;4.33;;;;;26.68;36.62;101661.44;4786526;29;46389;-79
2023/10/10 17:53:11;;;;;;;;;6.00;5.33;;;;;26.79;36.70;101673.44;4797574;29;45869;-80
2023/10/10 17:55:43;;;;;;;;;8.00;6.67;;;;;26.80;37.07;101675.94;4802000;29;45417;-79
2023/10/10 17:58:09;;;;;;;;;9.67;8.00;;;;;26.84;37.16;101682.53;4798685;29;45356;-79
2023/10/10 18:00:35;;;;;;;;;6.00;5.67;;;;;26.87;37.54;101683.16;4799072;29;45569;-80
2023/10/10 18:03:03;;;;;;;;;8.33;7.33;;;;;26.88;36.94;101687.50;4812962;29;46454;-81
2023/10/10 18:05:36;;;;;;;;;7.00;7.00;;;;;26.82;37.90;101676.56;4823462;29;45608;-81
2023/10/10 18:08:01;;;;;;;;;5.33;5.00;;;;;26.71;37.74;101653.88;4820085;29;45613;-81
2023/10/10 18:10:26;;;;;;;;;8.67;6.00;;;;;26.95;37.87;101685.69;4816003;29;46233;-80
2023/10/10 18:12:52;;;;;;;;;8.67;5.33;;;;;26.93;37.43;101671.72;4805157;29;45655;-80
2023/10/10 18:15:18;;;;;;;;;9.00;7.00;;;;;26.91;37.81;101663.06;4820208;29;45416;-79
2023/10/10 18:17:55;;;;;;;;;4.00;4.00;;;;;26.91;37.89;101677.22;4805234;29;45973;-80
2023/10/10 18:20:24;;;;;;;;;5.33;5.33;;;;;26.99;37.67;101688.78;4815046;29;46729;-83
2023/10/10 18:22:51;;;;;;;;;5.00;5.00;;;;;26.97;37.70;101689.00;4826237;29;45391;-83
2023/10/10 18:25:17;;;;;;;;;7.00;6.00;;;;;27.03;38.43;101693.56;4826853;29;45458;-81
2023/10/10 18:27:47;;;;;;;;;7.00;6.67;;;;;27.04;38.03;101697.88;4827112;29;45340;-80
2023/10/10 18:30:20;;;;;;;;;6.00;6.00;;;;;26.87;38.40;101664.47;4826491;29;47263;-81
2023/10/10 18:32:50;;;;;;;;;4.33;4.33;;;;;26.96;38.30;101679.31;4826777;29;45426;-82
2023/10/10 18:35:17;;;;;;;;;7.00;6.33;;;;;27.08;39.01;101692.97;4826741;29;45382;-81
2023/10/10 18:37:44;;;;;;;;;6.33;5.00;;;;;27.02;38.98;101688.41;4826993;29;45225;-82
2023/10/10 18:40:30;;;;;;;;;6.33;5.67;;;;;27.12;38.27;101701.41;4826926;29;46129;-82
2023/10/10 18:42:55;;;;;;;;;4.00;4.00;;;;;27.12;38.57;101699.56;4826961;29;45371;-82
2023/10/10 18:45:20;;;;;;;;;6.00;4.00;;;;;27.09;38.62;101688.47;4826296;29;45542;-82
2023/10/10 18:47:49;;;;;;;;;6.00;6.00;;;;;27.01;39.41;101673.41;4826950;29;45368;-83
2023/10/10 18:50:19;;;;;;;;;7.33;5.00;;;;;27.16;38.68;101700.88;4825384;29;46906;-79
2023/10/10 18:52:49;;;;;;;;;5.00;5.00;;;;;27.11;38.85;101692.59;4826347;29;45490;-82
2023/10/10 18:55:18;;;;;;;;;7.33;6.00;;;;;26.95;39.46;101665.16;4825153;29;45442;-79
2023/10/10 18:57:48;;;;;;;;;7.00;6.00;;;;;26.89;38.87;101651.75;4825317;29;45555;-79
2023/10/10 19:00:14;;;;;;;;;5.00;5.00;;;;;27.09;39.41;101689.28;4826045;29;46960;-83
2023/10/10 19:02:44;;;;;;;;;5.33;4.00;;;;;27.18;39.46;101700.69;4824067;29;45298;-80
2023/10/10 19:05:15;;;;;;;;;7.00;6.00;;;;;27.12;38.92;101694.22;4826153;29;45493;-81
2023/10/10 19:07:44;;;;;;;;;4.67;3.67;;;;;26.81;39.41;101648.22;4821256;29;45444;-80
2023/10/10 19:10:13;;;;;;;;;6.33;6.33;;;;;27.00;39.42;101680.59;4825901;29;45980;-87
2023/10/10 19:12:50;;;;;;;;;7.00;5.00;;;;;27.14;39.27;101700.22;4826276;29;45353;-80
2023/10/10 19:15:16;;;;;;;;;5.67;4.67;;;;;26.91;39.09;101658.53;4826599;29;45389;-81
2023/10/10 19:17:46;;;;;;;;;7.00;5.00;;;;;26.99;39.42;101675.44;4826404;29;45585;-83
2023/10/10 19:20:18;;;;;;;;;6.67;6.67;;;;;27.20;39.66;101706.66;4826264;29;45416;-79
2023/10/10 19:22:54;;;;;;;;;4.67;4.67;;;;;27.21;39.48;101704.81;4826305;29;45409;-84
2023/10/10 19:25:21;;;;;;;;;6.00;4.00;;;;;27.19;39.52;101697.00;4826805;29;45320;-83
2023/10/10 19:27:48;;;;;;;;;6.00;5.00;;;;;27.15;40.24;101690.38;4826005;29;45487;-79
2023/10/10 19:30:17;;;;;;;;;5.67;4.00;;;;;27.18;39.77;101698.84;4826288;29;46961;-81
2023/10/10 19:32:48;;;;;;;;;5.33;5.33;;;;;27.10;39.69;101685.59;4827000;29;45370;-77
2023/10/10 19:35:17;;;;;;;;;8.00;5.67;;;;;27.09;39.80;101681.25;4826433;29;45457;-77
2023/10/10 19:37:43;;;;;;;;;5.00;5.00;;;;;27.17;39.71;101691.84;4826357;29;45575;-79
2023/10/10 19:40:10;;;;;;;;;5.67;4.67;;;;;27.23;39.93;101706.25;4828496;29;46045;-78
2023/10/10 19:42:39;;;;;;;;;5.67;5.67;;;;;27.16;40.05;101689.38;4826505;29;45427;-79
2023/10/10 19:45:17;;;;;;;;;6.33;5.00;;;;;27.26;39.91;101700.53;4821525;29;45453;-76
2023/10/10 19:47:45;;;;;;;;;6.00;6.00;;;;;27.28;40.65;101708.34;4824836;29;45275;-77
2023/10/10 19:50:11;;;;;;;;;6.00;5.00;;;;;27.12;40.68;101675.53;4823075;29;46681;-78
2023/10/10 19:52:37;;;;;;;;;7.67;5.67;;;;;27.32;40.49;101708.78;4826547;29;45453;-77
2023/10/10 19:55:07;;;;;;;;;5.67;5.00;;;;;27.31;40.36;101707.13;4826543;29;45316;-79
2023/10/10 19:57:35;;;;;;;;;7.67;5.00;;;;;27.12;40.02;101666.69;4822211;29;45399;-78
2023/10/10 20:00:06;;;;;;;;;7.67;4.67;;;;;27.32;40.57;101695.44;4825315;29;46237;-79
2023/10/10 20:02:32;;;;;;;;;5.67;4.33;;;;;27.37;40.71;101704.50;4825193;29;45365;-78
2023/10/10 20:04:58;;;;;;;;;5.00;5.00;;;;;27.06;40.66;101654.97;4824717;29;45560;-78
2023/10/10 20:07:24;;;;;;;;;7.33;6.00;;;;;27.26;40.14;101679.16;4825174;29;45499;-79
2023/10/10 20:09:52;;;;;;;;;5.67;4.33;;;;;26.88;40.95;101618.06;4824178;29;45702;-80
2023/10/10 20:12:17;;;;;;;;;6.00;4.67;;;;;26.82;40.95;101619.66;4820339;29;45556;-78
2023/10/10 20:14:43;;;;;;;;;7.67;5.67;;;;;26.65;40.23;101592.47;4824248;29;45456;-79
2023/10/10 20:17:08;;;;;;;;;6.00;6.00;;;;;27.20;40.85;101669.25;4824000;29;45361;-80
2023/10/10 20:19:34;;;;;;;;;6.00;4.33;;;;;26.47;41.06;101554.53;4824508;29;46322;-80
2023/10/10 20:21:59;;;;;;;;;5.33;5.33;;;;;26.88;40.12;101626.88;4824111;29;45319;-80
2023/10/10 20:24:25;;;;;;;;;5.00;4.67;;;;;27.12;40.91;101654.16;4824660;29;45347;-83
2023/10/10 20:26:51;;;;;;;;;6.33;5.00;;;;;27.40;40.65;101697.94;4824761;29;45424;-79
2023/10/10 20:29:16;;;;;;;;;7.00;5.33;;;;;26.87;40.58;101621.75;4824797;29;47111;-79
2023/10/10 20:31:42;;;;;;;;;4.00;4.00;;;;;27.38;40.78;101690.13;4824910;29;45312;-79
2023/10/10 20:34:08;;;;;;;;;8.00;5.00;;;;;27.02;41.06;101637.66;4824250;29;45362;-79
2023/10/10 20:36:36;;;;;;;;;6.00;3.67;;;;;27.39;41.54;101697.13;4824835;29;45374;-78
2023/10/10 20:39:06;;;;;;;;;6.67;4.00;;;;;27.33;40.64;101683.72;4823274;29;46988;-74
2023/10/10 20:41:32;;;;;;;;;4.67;4.67;;;;;27.40;40.38;101703.31;4838906;29;45368;-74
2023/10/10 20:43:59;;;;;;;;;6.00;5.00;;;;;27.23;40.43;101671.53;4824841;29;45327;-76
2023/10/10 20:46:28;;;;;;;;;5.67;5.67;;;;;27.38;40.53;101697.31;4824721;29;45490;-74
2023/10/10 20:48:56;;;;;;;;;6.67;5.00;;;;;27.37;40.53;101701.84;4824747;29;47205;-74
2023/10/10 20:51:24;;;;;;;;;5.00;5.00;;;;;27.32;41.16;101690.91;4824637;29;45347;-75
2023/10/10 20:53:50;;;;;;;;;6.33;5.00;;;;;27.36;40.69;101699.34;4824447;29;45377;-75
2023/10/10 20:56:16;;;;;;;;;8.33;5.33;;;;;27.32;40.73;101698.94;4824701;29;45352;-76
2023/10/10 20:58:42;;;;;;;;;3.67;3.67;;;;;27.35;41.02;101708.41;4824596;29;46526;-79
2023/10/10 21:01:14;;;;;;;;;6.00;4.67;;;;;27.35;41.07;101703.06;4824543;29;45502;-78
2023/10/10 21:03:39;;;;;;;;;4.33;4.00;;;;;27.34;41.13;101704.06;4825022;29;45399;-79
2023/10/10 21:06:05;;;;;;;;;5.33;5.00;;;;;27.33;40.79;101707.75;4824867;29;45421;-79
2023/10/10 21:08:31;;;;;;;;;4.33;4.33;;;;;27.26;40.99;101699.69;4824368;29;46135;-79
2023/10/10 21:10:57;;;;;;;;;3.33;3.33;;;;;27.29;40.80;101710.84;4824861;29;45288;-78
2023/10/10 21:13:25;;;;;;;;;5.00;5.00;;;;;27.29;41.15;101710.00;4824791;29;45400;-79
2023/10/10 21:15:51;;;;;;;;;5.00;3.67;;;;;27.16;40.83;101694.72;4824783;29;45221;-78
2023/10/10 21:18:18;;;;;;;;;3.33;3.00;;;;;27.27;40.70;101712.84;4824677;29;46069;-79
2023/10/10 21:20:43;;;;;;;;;4.00;4.00;;;;;27.09;40.93;101683.94;4824836;29;45655;-79
2023/10/10 21:23:10;;;;;;;;;5.67;5.33;;;;;27.27;40.42;101709.38;4824659;29;45316;-79
2023/10/10 21:25:35;;;;;;;;;3.00;1.00;;;;;27.16;40.50;101694.72;4824654;29;45293;-79
2023/10/10 21:28:01;;;;;;;;;6.33;4.67;;;;;27.23;40.76;101716.94;4824521;29;45326;-80
2023/10/10 21:30:29;;;;;;;;;5.00;4.00;;;;;27.12;40.83;101698.75;4824655;29;45397;-79
2023/10/10 21:32:58;;;;;;;;;5.00;5.00;;;;;27.14;40.77;101700.22;4824442;29;45523;-79
2023/10/10 21:35:29;;;;;;;;;5.00;5.00;;;;;27.20;41.21;101711.16;4827866;29;45481;-78
2023/10/10 21:37:58;;;;;;;;;7.00;5.00;;;;;27.11;41.18;101695.28;4827213;29;46326;-78
2023/10/10 21:40:24;;;;;;;;;8.00;6.00;;;;;27.21;41.44;101716.31;4827885;29;45732;-79
2023/10/10 21:42:53;;;;;;;;;6.67;5.00;;;;;27.20;40.67;101712.00;4827796;29;45361;-79
2023/10/10 21:45:19;;;;;;;;;4.67;4.67;;;;;27.21;40.73;101710.16;4827880;29;45407;-79
2023/10/10 21:47:53;;;;;;;;;5.00;5.00;;;;;27.16;41.12;101694.72;4827552;29;47240;-79
2023/10/10 21:50:18;;;;;;;;;4.33;4.33;;;;;26.93;40.85;101659.16;4827522;29;45306;-78
2023/10/10 21:52:45;;;;;;;;;5.00;4.00;;;;;27.17;41.24;101689.16;4827451;29;45290;-79
2023/10/10 21:55:17;;;;;;;;;6.67;4.67;;;;;27.07;40.80;101678.78;4827785;29;45385;-78
2023/10/10 21:57:57;;;;;;;;;4.00;4.00;;;;;27.17;41.19;101691.00;4827211;29;46232;-78
2023/10/10 22:00:49;;;;;;;;;5.00;4.00;;;;;27.03;40.80;101669.53;4827233;29;45411;-78
2023/10/10 22:03:09;;;;;;;;;7.00;4.33;;;;;27.16;41.01;101692.03;4827433;29;45426;-78
2023/10/10 22:05:37;;;;;;;;;6.33;5.67;;;;;27.16;41.41;101692.03;4827358;29;45469;-78
2023/10/10 22:08:07;;;;;;;;;6.33;5.00;;;;;27.11;40.96;101687.25;4826900;29;46260;-79
2023/10/10 22:10:33;;;;;;;;;4.33;4.00;;;;;27.15;40.83;101693.06;4827217;29;45372;-79
2023/10/10 22:13:00;;;;;;;;;5.33;4.00;;;;;27.11;40.77;101692.59;4827436;29;45317;-79
2023/10/10 22:15:26;;;;;;;;;5.00;4.00;;;;;27.11;40.74;101700.63;4827272;29;45510;-78
2023/10/10 22:17:54;;;;;;;;;7.00;6.00;;;;;27.12;41.41;101693.41;4827232;29;45372;-78
2023/10/10 22:20:20;;;;;;;;;4.00;3.67;;;;;27.05;40.96;101672.00;4827059;29;45424;-79
2023/10/10 22:22:46;;;;;;;;;7.67;7.00;;;;;27.03;40.71;101679.38;4826821;29;45279;-78
2023/10/10 22:25:18;;;;;;;;;6.00;4.33;;;;;26.95;40.57;101664.34;4827162;29;45492;-79
2023/10/10 22:27:48;;;;;;;;;4.67;4.67;;;;;27.13;41.33;101697.75;4827123;29;45442;-79
2023/10/10 22:30:15;;;;;;;;;4.00;4.00;;;;;27.12;40.56;101696.06;4827104;29;45464;-79
2023/10/10 22:32:47;;;;;;;;;4.00;4.00;;;;;27.13;40.68;101697.75;4826960;29;45393;-79
2023/10/10 22:35:18;;;;;;;;;4.67;3.67;;;;;27.00;41.14;101667.25;4826752;29;45278;-79
2023/10/10 22:37:47;;;;;;;;;3.67;3.67;;;;;27.08;41.53;101684.97;4827043;29;45943;-78
2023/10/10 22:40:25;;;;;;;;;5.33;5.00;;;;;27.07;40.93;101676.13;4826782;29;45386;-78
2023/10/10 22:43:01;;;;;;;;;6.00;4.67;;;;;27.07;41.24;101673.47;4827096;29;45477;-79
2023/10/10 22:45:29;;;;;;;;;6.67;4.00;;;;;26.99;41.03;101668.25;4825859;29;45374;-79
2023/10/10 22:47:56;;;;;;;;;4.33;4.33;;;;;27.09;41.14;101673.25;4826026;29;46289;-78
2023/10/10 22:50:22;;;;;;;;;4.33;4.00;;;;;27.09;41.35;101681.25;4808489;29;45693;-78
2023/10/10 22:52:53;;;;;;;;;4.00;4.00;;;;;27.02;41.23;101669.72;4808659;29;45364;-79
2023/10/10 22:55:20;;;;;;;;;6.33;4.00;;;;;27.06;40.99;101676.34;4808412;29;45321;-79
2023/10/10 22:57:46;;;;;;;;;4.00;4.00;;;;;27.04;41.36;101678.34;4808360;29;46666;-78
2023/10/10 23:00:13;;;;;;;;;5.00;5.00;;;;;27.05;41.36;101682.69;4808021;29;45373;-78
2023/10/10 23:02:48;;;;;;;;;5.67;4.33;;;;;27.05;40.95;101680.84;4808650;29;45256;-79
2023/10/10 23:05:13;;;;;;;;;5.00;3.00;;;;;27.08;40.77;101676.97;4823019;29;45520;-79
2023/10/10 23:07:42;;;;;;;;;5.33;5.33;;;;;27.09;41.33;101677.78;4826345;29;45450;-79
2023/10/10 23:10:20;;;;;;;;;5.00;4.67;;;;;26.98;40.97;101668.47;4826520;29;45338;-78
2023/10/10 23:12:47;;;;;;;;;5.67;5.67;;;;;27.07;41.07;101677.97;4826475;29;45361;-78
2023/10/10 23:15:14;;;;;;;;;3.00;2.00;;;;;27.07;41.00;101680.63;4826511;29;45366;-78
2023/10/10 23:17:49;;;;;;;;;6.00;5.00;;;;;27.04;40.78;101681.84;4826246;29;45332;-79
2023/10/10 23:20:21;;;;;;;;;4.33;4.00;;;;;26.92;40.87;101656.72;4825764;29;45422;-79
2023/10/10 23:22:48;;;;;;;;;5.67;4.00;;;;;27.05;41.31;101683.50;4826423;29;45279;-79
2023/10/10 23:25:17;;;;;;;;;7.00;6.00;;;;;26.90;41.34;101654.25;4826269;29;45399;-79
2023/10/10 23:27:43;;;;;;;;;4.00;4.00;;;;;26.92;40.80;101654.03;4826090;29;46099;-79
2023/10/10 23:30:12;;;;;;;;;5.33;5.33;;;;;26.97;40.79;101662.28;4826002;29;45404;-78
2023/10/10 23:32:39;;;;;;;;;6.33;5.00;;;;;27.05;41.26;101670.16;4826255;29;45379;-79
2023/10/10 23:35:08;;;;;;;;;6.00;5.67;;;;;27.05;40.70;101678.16;4825861;29;45579;-79
2023/10/10 23:37:37;;;;;;;;;7.33;5.00;;;;;27.05;40.66;101672.00;4826021;29;46217;-79
2023/10/10 23:40:15;;;;;;;;;4.00;4.00;;;;;27.03;40.65;101669.53;4825978;29;45335;-79
2023/10/10 23:42:49;;;;;;;;;6.33;5.00;;;;;26.76;41.23;101629.28;4826217;29;45389;-79
2023/10/10 23:45:22;;;;;;;;;6.33;5.33;;;;;27.05;40.75;101680.00;4825877;29;45477;-79
2023/10/10 23:47:51;;;;;;;;;5.00;5.00;;;;;26.72;41.33;101628.03;4825435;29;45677;-79
2023/10/10 23:50:22;;;;;;;;;4.67;4.33;;;;;26.93;41.03;101659.16;4825888;29;45299;-78
2023/10/10 23:52:51;;;;;;;;;6.33;4.33;;;;;26.96;41.06;101653.44;4825899;29;45407;-78
2023/10/10 23:55:24;;;;;;;;;5.33;5.33;;;;;27.04;41.07;101659.66;4825833;29;45342;-79
2023/10/10 23:57:54;;;;;;;;;7.00;4.67;;;;;27.03;41.16;101658.03;4825642;29;46854;-79
